Time;durP1;ratioP1;P1;durP2;ratioP2;P2;SDS_P1;SDS_P2;PMS_P1;PMS_P2;Temp;Humidity;BMP_temperature;BMP_pressure;BME280_temperature;BME280_humidity;BME280_pressure;Samples;Min_cycle;Max_cycle;Signal;HPM_P1;HPM_P2
2023/01/16 00:00:04;;;;;;;2.53;1.38;;;;;;;-1.00;100.00;94572.94;4972744;28;20041;-73
2023/01/16 00:02:30;;;;;;;6.88;0.90;;;;;;;-1.03;100.00;94573.38;4997052;28;20061;-74
2023/01/16 00:04:56;;;;;;;2.90;0.85;;;;;;;-1.06;100.00;94568.66;5007237;28;20046;-73
2023/01/16 00:07:21;;;;;;;2.60;1.15;;;;;;;-1.02;100.00;94559.47;4994303;28;20759;-74
2023/01/16 00:09:47;;;;;;;1.23;0.90;;;;;;;-1.10;100.00;94557.97;4992365;28;21027;-74
2023/01/16 00:12:12;;;;;;;1.95;1.00;;;;;;;-1.09;100.00;94538.88;4989090;28;20101;-74
2023/01/16 00:14:38;;;;;;;3.15;1.13;;;;;;;-1.03;100.00;94542.38;4964699;28;20038;-74
2023/01/16 00:17:03;;;;;;;1.80;1.00;;;;;;;-1.08;100.00;94539.66;4989069;28;20085;-74
2023/01/16 00:19:29;;;;;;;2.70;0.85;;;;;;;-1.10;100.00;94531.34;4993634;28;20081;-75
2023/01/16 00:21:54;;;;;;;2.35;1.00;;;;;;;-0.99;100.00;94532.38;5000093;28;20039;-74
2023/01/16 00:24:20;;;;;;;1.30;0.90;;;;;;;-1.09;100.00;94532.94;4983213;28;20115;-76
2023/01/16 00:26:48;;;;;;;3.90;1.10;;;;;;;-1.09;100.00;94527.78;4994243;28;20042;-75
2023/01/16 00:29:14;;;;;;;2.03;1.27;;;;;;;-1.17;100.00;94521.13;5006521;28;20049;-74
2023/01/16 00:31:40;;;;;;;1.90;0.90;;;;;;;-1.25;100.00;94514.47;4992128;28;20038;-76
2023/01/16 00:34:05;;;;;;;0.90;0.73;;;;;;;-1.23;100.00;94509.88;4996624;28;20042;-75
2023/01/16 00:36:31;;;;;;;1.33;0.80;;;;;;;-1.30;100.00;94504.00;5000769;28;20042;-75
2023/01/16 00:38:56;;;;;;;2.78;1.10;;;;;;;-1.31;100.00;94505.00;5001816;28;20046;-75
2023/01/16 00:41:22;;;;;;;0.77;0.75;;;;;;;-1.30;100.00;94498.84;4997269;28;20447;-75
2023/01/16 00:43:47;;;;;;;1.17;0.90;;;;;;;-1.26;100.00;94497.41;4989260;28;20531;-75
2023/01/16 00:46:13;;;;;;;2.45;1.10;;;;;;;-1.22;100.00;94493.38;4998940;28;20116;-75
2023/01/16 00:48:38;;;;;;;2.22;0.85;;;;;;;-1.17;100.00;94504.84;5007515;28;20925;-76
2023/01/16 00:51:04;;;;;;;1.17;0.90;;;;;;;-1.24;100.00;94495.38;4997983;28;20129;-76
2023/01/16 00:53:30;;;;;;;4.68;1.00;;;;;;;-1.32;100.00;94487.97;4980698;28;20396;-75
2023/01/16 00:55:55;;;;;;;1.10;0.85;;;;;;;-1.30;100.00;94480.78;5002996;28;20099;-74
2023/01/16 00:58:21;;;;;;;2.40;1.02;;;;;;;-1.29;100.00;94479.78;5007201;28;20054;-75
2023/01/16 01:00:46;;;;;;;1.73;0.95;;;;;;;-1.27;100.00;94470.00;4990729;28;20059;-75
2023/01/16 01:03:12;;;;;;;0.88;0.70;;;;;;;-1.19;100.00;94473.28;4996264;28;20666;-75
2023/01/16 01:05:38;;;;;;;1.75;1.05;;;;;;;-1.32;100.00;94462.16;4999269;28;20050;-75
2023/01/16 01:08:04;;;;;;;2.33;1.30;;;;;;;-1.32;100.00;94467.31;5001178;28;20427;-76
2023/01/16 01:10:30;;;;;;;2.58;0.70;;;;;;;-1.29;100.00;94461.72;4997267;28;20046;-75
2023/01/16 01:12:55;;;;;;;1.83;0.70;;;;;;;-1.25;100.00;94457.69;4986025;28;20058;-75
2023/01/16 01:15:22;;;;;;;5.97;1.20;;;;;;;-1.17;100.00;94453.22;4995313;28;20038;-75
2023/01/16 01:17:48;;;;;;;1.38;0.90;;;;;;;-1.15;100.00;94451.19;4995919;28;20121;-75
2023/01/16 01:20:14;;;;;;;0.90;0.82;;;;;;;-1.13;100.00;94449.19;4985749;28;20043;-75
2023/01/16 01:22:40;;;;;;;1.75;0.93;;;;;;;-1.03;100.00;94444.25;4987264;28;20569;-75
2023/01/16 01:25:06;;;;;;;1.92;0.88;;;;;;;-1.06;100.00;94439.53;5005086;28;20647;-74
2023/01/16 01:27:31;;;;;;;1.00;0.90;;;;;;;-1.07;100.00;94427.63;5001631;28;20413;-75
2023/01/16 01:29:57;;;;;;;3.88;1.00;;;;;;;-1.05;100.00;94431.56;5002335;28;20057;-75
2023/01/16 01:32:22;;;;;;;2.38;1.00;;;;;;;-0.95;100.00;94436.19;4985963;28;20039;-75
2023/01/16 01:34:48;;;;;;;1.13;1.00;;;;;;;-0.90;100.00;94427.75;5004686;28;20080;-74
2023/01/16 01:37:14;;;;;;;1.20;0.70;;;;;;;-0.97;100.00;94412.34;4975480;28;20719;-75
2023/01/16 01:39:39;;;;;;;1.75;0.82;;;;;;;-0.95;100.00;94415.53;4999642;28;20125;-75
2023/01/16 01:45:23;;;;;;;6.32;1.00;;;;;;;-0.90;100.00;94407.88;4935237;29;20047;-75
2023/01/16 01:48:02;;;;;;;1.48;0.93;;;;;;;-0.99;100.00;94401.47;4979412;28;20064;-75
2023/01/16 01:50:50;;;;;;;2.17;1.00;;;;;;;-0.87;100.00;94391.91;4994445;28;20049;-75
2023/01/16 01:53:35;;;;;;;1.70;1.05;;;;;;;-0.80;100.00;94391.03;4987480;28;20073;-75
2023/01/16 01:56:09;;;;;;;1.95;1.00;;;;;;;-0.85;100.00;94378.00;4986204;28;20034;-75
2023/01/16 01:58:35;;;;;;;3.67;0.77;;;;;;;-0.89;100.00;94370.72;5001208;28;20042;-75
2023/01/16 02:01:03;;;;;;;2.45;1.00;;;;;;;-0.96;100.00;94372.63;4996748;28;20038;-74
2023/01/16 02:03:32;;;;;;;1.15;0.60;;;;;;;-1.08;100.00;94374.41;5001263;28;20034;-75
2023/01/16 02:06:02;;;;;;;1.45;0.85;;;;;;;-1.08;100.00;94374.41;4999529;28;20034;-75
2023/01/16 02:08:32;;;;;;;1.17;0.75;;;;;;;-1.19;100.00;94364.84;5001255;28;20064;-75
2023/01/16 02:11:25;;;;;;;2.40;0.90;;;;;;;-1.25;100.00;94374.28;4988906;28;20500;-75
2023/01/16 02:13:53;;;;;;;1.63;0.85;;;;;;;-1.35;100.00;94364.53;4988245;28;20041;-75
2023/01/16 02:19:16;;;;;;;1.42;0.80;;;;;;;-1.45;100.00;94348.78;4998557;28;20551;-74
2023/01/16 02:22:19;;;;;;;1.50;0.95;;;;;;;-1.53;100.00;94338.78;4996418;28;20608;-74
2023/01/16 02:25:10;;;;;;;1.17;0.88;;;;;;;-1.57;100.00;94326.34;4996622;28;20081;-74
2023/01/16 02:27:53;;;;;;;4.28;1.00;;;;;;;-1.50;100.00;94325.44;4990595;28;20077;-75
2023/01/16 02:31:13;;;;;;;1.27;0.75;;;;;;;-1.47;100.00;94325.00;4971558;28;20366;-75
2023/01/16 02:33:45;;;;;;;0.73;0.70;;;;;;;-1.50;100.00;94320.28;4892918;29;20052;-75
2023/01/16 02:36:49;;;;;;;1.55;0.88;;;;;;;-1.50;100.00;94320.28;4983063;28;20140;-75
2023/01/16 02:39:54;;;;;;;1.67;0.95;;;;;;;-1.62;100.00;94317.69;4891137;29;20063;-75
2023/01/16 02:42:33;;;;;;;2.67;1.15;;;;;;;-1.73;100.00;94301.19;4986611;28;20043;-75
2023/01/16 02:45:01;;;;;;;3.30;0.90;;;;;;;-1.66;100.00;94296.69;4985922;28;20043;-76
2023/01/16 02:47:36;;;;;;;1.13;0.85;;;;;;;-1.66;100.00;94290.78;4997508;28;20041;-75
2023/01/16 02:50:21;;;;;;;3.30;0.80;;;;;;;-1.58;100.00;94278.31;4999605;28;20038;-74
2023/01/16 02:53:14;;;;;;;1.10;0.70;;;;;;;-1.53;100.00;94280.22;4999537;28;20518;-75
2023/01/16 02:55:57;;;;;;;1.75;0.70;;;;;;;-1.52;100.00;94281.00;4988893;28;20662;-75
2023/01/16 02:58:24;;;;;;;1.63;0.75;;;;;;;-1.52;100.00;94281.00;4999582;28;20038;-75
2023/01/16 03:00:58;;;;;;;3.90;0.70;;;;;;;-1.45;100.00;94264.41;5000388;28;20050;-75
2023/01/16 03:03:39;;;;;;;2.47;0.93;;;;;;;-1.43;100.00;94259.03;4981950;28;20515;-75
2023/01/16 03:06:44;;;;;;;1.65;0.80;;;;;;;-1.36;100.00;94257.13;4998165;28;20041;-75
2023/01/16 03:09:40;;;;;;;2.25;1.13;;;;;;;-1.35;100.00;94250.97;4998303;28;20050;-76
2023/01/16 03:12:37;;;;;;;1.30;0.65;;;;;;;-1.39;100.00;94244.66;4978232;28;20060;-76
2023/01/16 03:15:58;;;;;;;2.20;1.00;;;;;;;-1.44;100.00;94234.22;4994655;28;20042;-76
2023/01/16 03:18:41;;;;;;;1.65;0.93;;;;;;;-1.37;100.00;94236.69;4935233;29;20620;-74
2023/01/16 03:21:16;;;;;;;1.55;0.95;;;;;;;-1.40;100.00;94232.78;5006188;28;20038;-76
2023/01/16 03:23:55;;;;;;;0.88;0.73;;;;;;;-1.38;100.00;94223.00;4995571;28;20046;-76
2023/01/16 03:26:31;;;;;;;2.38;1.20;;;;;;;-1.45;100.00;94214.59;4991680;28;20053;-76
2023/01/16 03:29:00;;;;;;;1.42;0.93;;;;;;;-1.42;100.00;94204.63;4988603;28;20088;-74
2023/01/16 03:31:33;;;;;;;1.02;0.82;;;;;;;-1.50;100.00;94196.44;4990966;28;20092;-75
2023/01/16 03:34:14;;;;;;;1.25;0.65;;;;;;;-1.51;100.00;94190.47;4983474;28;20038;-76
2023/01/16 03:36:48;;;;;;;1.30;0.90;;;;;;;-1.48;100.00;94194.41;5006966;28;20050;-76
2023/01/16 03:39:18;;;;;;;1.13;0.65;;;;;;;-1.50;100.00;94180.94;4976093;28;20045;-75
2023/01/16 03:41:47;;;;;;;2.00;0.63;;;;;;;-1.58;100.00;94177.72;5006479;28;20046;-76
2023/01/16 03:44:25;;;;;;;2.70;1.10;;;;;;;-1.54;100.00;94174.66;4995311;28;20046;-76
2023/01/16 03:46:50;;;;;;;2.78;0.90;;;;;;;-1.61;100.00;94173.00;4976630;28;20045;-76
2023/01/16 03:49:36;;;;;;;0.95;0.70;;;;;;;-1.65;100.00;94161.56;4998684;28;20412;-76
2023/01/16 03:52:05;;;;;;;1.33;0.98;;;;;;;-1.66;100.00;94152.25;4995125;28;20042;-76
2023/01/16 03:54:59;;;;;;;2.55;1.00;;;;;;;-1.66;100.00;94157.41;4995717;28;20041;-76
2023/01/16 03:57:29;;;;;;;1.73;1.00;;;;;;;-1.72;100.00;94142.84;4985143;28;20046;-75
2023/01/16 03:59:55;;;;;;;1.95;1.10;;;;;;;-1.77;100.00;94130.63;5002481;28;20041;-76
2023/01/16 04:02:46;;;;;;;1.38;0.85;;;;;;;-1.84;100.00;94131.72;4989938;28;20531;-76
2023/01/16 04:05:20;;;;;;;1.70;0.77;;;;;;;-1.89;100.00;94122.09;4960337;28;20054;-76
2023/01/16 04:07:53;;;;;;;1.73;1.00;;;;;;;-1.96;100.00;94132.53;5004582;28;20042;-76
2023/01/16 04:10:41;;;;;;;1.98;0.88;;;;;;;-2.13;100.00;94121.31;4980285;28;20043;-76
2023/01/16 04:13:19;;;;;;;1.33;0.70;;;;;;;-2.08;100.00;94118.88;4994056;28;20081;-76
2023/01/16 04:15:49;;;;;;;1.00;0.90;;;;;;;-2.11;100.00;94114.16;4995411;28;20042;-76
2023/01/16 04:18:15;;;;;;;1.38;0.85;;;;;;;-2.16;100.00;94103.72;4989731;28;20042;-76
2023/01/16 04:20:44;;;;;;;1.48;0.95;;;;;;;-2.16;100.00;94101.16;5006889;28;20053;-75
2023/01/16 04:23:12;;;;;;;2.05;0.98;;;;;;;-2.19;100.00;94096.44;4995922;28;20607;-76
2023/01/16 04:25:38;;;;;;;0.60;0.60;;;;;;;-2.26;100.00;94086.25;4977846;28;20046;-75
2023/01/16 04:28:04;;;;;;;1.73;1.20;;;;;;;-2.36;100.00;94076.47;5007146;28;20049;-76
2023/01/16 04:30:29;;;;;;;1.45;1.15;;;;;;;-2.39;100.00;94061.47;4993446;28;20053;-76
2023/01/16 04:32:55;;;;;;;2.47;0.95;;;;;;;-2.41;100.00;94052.38;4984977;28;20049;-76
2023/01/16 04:35:21;;;;;;;1.17;1.00;;;;;;;-2.42;100.00;94051.63;4974564;28;20085;-75
2023/01/16 04:37:46;;;;;;;2.00;1.13;;;;;;;-2.42;100.00;94046.47;5001341;28;20037;-75
2023/01/16 04:40:12;;;;;;;2.55;1.13;;;;;;;-2.34;100.00;94046.13;4986162;28;20043;-76
2023/01/16 04:42:38;;;;;;;1.63;1.00;;;;;;;-2.40;100.00;94036.72;4982100;28;20057;-76
2023/01/16 04:45:04;;;;;;;1.50;1.00;;;;;;;-2.44;100.00;94027.88;4988407;28;20480;-76
2023/01/16 04:47:29;;;;;;;1.38;1.00;;;;;;;-2.37;100.00;94014.88;4998337;28;20531;-75
2023/01/16 04:49:55;;;;;;;2.80;1.38;;;;;;;-2.30;100.00;94021.50;4984837;28;20042;-75
2023/01/16 04:52:20;;;;;;;2.83;0.95;;;;;;;-2.25;100.00;94009.72;4984809;28;20050;-76
2023/01/16 04:54:46;;;;;;;3.50;1.40;;;;;;;-2.27;100.00;93997.84;4990374;28;20041;-76
2023/01/16 04:57:11;;;;;;;3.10;1.10;;;;;;;-2.28;100.00;93990.34;5003044;28;20042;-76
2023/01/16 04:59:37;;;;;;;1.90;1.15;;;;;;;-2.31;100.00;93980.50;4998867;28;20121;-75
2023/01/16 05:02:02;;;;;;;1.13;1.02;;;;;;;-2.29;100.00;93984.38;4986639;28;20034;-75
2023/01/16 05:04:28;;;;;;;3.10;1.60;;;;;;;-2.30;100.00;93980.25;4995151;28;20050;-76
2023/01/16 05:06:53;;;;;;;2.33;1.30;;;;;;;-2.33;100.00;93969.63;5000060;28;20069;-75
2023/01/16 05:09:19;;;;;;;1.83;1.23;;;;;;;-2.34;100.00;93966.25;4982372;28;20050;-75
2023/01/16 05:11:45;;;;;;;4.93;1.00;;;;;;;-2.37;100.00;93965.91;5002879;28;20042;-75
2023/01/16 05:14:10;;;;;;;1.52;1.17;;;;;;;-2.33;100.00;93973.00;4985366;28;20526;-75
2023/01/16 05:16:38;;;;;;;1.92;1.25;;;;;;;-2.21;100.00;93960.06;4983177;28;20050;-75
2023/01/16 05:19:04;;;;;;;2.50;1.20;;;;;;;-2.25;100.00;93953.81;4982284;28;20034;-75
2023/01/16 05:21:30;;;;;;;2.03;0.88;;;;;;;-2.35;100.00;93944.06;5000233;28;20057;-75
2023/01/16 05:23:56;;;;;;;3.75;0.80;;;;;;;-2.30;100.00;93946.75;5002149;28;20081;-75
2023/01/16 05:26:21;;;;;;;2.88;1.20;;;;;;;-2.32;100.00;93943.63;4994554;28;20043;-75
2023/01/16 05:28:47;;;;;;;1.50;1.08;;;;;;;-2.44;100.00;93932.56;5010492;28;20108;-75
2023/01/16 05:31:12;;;;;;;1.23;0.70;;;;;;;-2.44;100.00;93935.13;4992141;28;20046;-75
2023/01/16 05:33:38;;;;;;;0.50;0.50;;;;;;;-2.47;100.00;93927.84;5001083;28;20067;-75
2023/01/16 05:36:04;;;;;;;1.83;1.00;;;;;;;-2.49;100.00;93927.28;4999297;28;20034;-76
2023/01/16 05:38:30;;;;;;;1.52;1.00;;;;;;;-2.51;100.00;93921.59;4997570;28;20050;-75
2023/01/16 05:40:55;;;;;;;1.58;1.13;;;;;;;-2.58;100.00;93913.22;4981958;28;20046;-76
2023/01/16 05:43:21;;;;;;;1.92;1.00;;;;;;;-2.61;100.00;93904.91;4987957;28;20054;-76
2023/01/16 05:45:46;;;;;;;3.28;1.02;;;;;;;-2.53;100.00;93901.22;4986720;28;20042;-76
2023/01/16 05:48:12;;;;;;;1.23;1.00;;;;;;;-2.54;100.00;93893.69;4997942;28;20041;-76
2023/01/16 05:50:37;;;;;;;2.00;1.00;;;;;;;-2.54;100.00;93891.13;4992931;28;20110;-75
2023/01/16 05:53:03;;;;;;;2.13;1.17;;;;;;;-2.49;100.00;93888.66;4985857;28;20444;-75
2023/01/16 05:55:29;;;;;;;2.72;1.30;;;;;;;-2.46;100.00;93877.91;4966286;28;20046;-74
2023/01/16 05:57:54;;;;;;;2.72;1.10;;;;;;;-2.51;100.00;93872.66;5004850;28;20512;-74
2023/01/16 06:00:20;;;;;;;1.30;1.10;;;;;;;-2.58;100.00;93872.00;4995477;28;20049;-76
2023/01/16 06:02:48;;;;;;;2.58;0.90;;;;;;;-2.63;100.00;93865.75;4979641;28;20041;-76
2023/01/16 06:05:14;;;;;;;1.38;0.88;;;;;;;-2.78;100.00;93861.03;5001228;28;20133;-76
2023/01/16 06:07:41;;;;;;;1.42;0.98;;;;;;;-2.81;100.00;93858.16;4990427;28;20047;-75
2023/01/16 06:10:09;;;;;;;2.20;1.15;;;;;;;-2.81;100.00;93853.00;4995243;28;20154;-75
2023/01/16 06:12:34;;;;;;;4.50;1.30;;;;;;;-2.89;100.00;93848.97;4971614;28;20081;-76
2023/01/16 06:15:00;;;;;;;5.72;1.30;;;;;;;-2.88;100.00;93847.19;4986522;28;20633;-75
2023/01/16 06:17:26;;;;;;;1.27;0.85;;;;;;;-2.90;100.00;93833.75;4990021;28;20042;-76
2023/01/16 06:19:52;;;;;;;2.33;1.13;;;;;;;-2.92;100.00;93820.34;4997581;28;20428;-75
2023/01/16 06:22:17;;;;;;;2.65;1.15;;;;;;;-3.06;100.00;93814.63;4991488;28;20089;-76
2023/01/16 06:24:43;;;;;;;2.00;1.10;;;;;;;-3.11;100.00;93805.03;5007636;28;20046;-75
2023/01/16 06:27:08;;;;;;;4.45;1.40;;;;;;;-3.08;100.00;93802.00;4989288;28;20081;-75
2023/01/16 06:29:36;;;;;;;2.03;1.10;;;;;;;-3.08;100.00;93786.56;4997791;28;20049;-75
2023/01/16 06:32:01;;;;;;;2.42;1.27;;;;;;;-3.08;100.00;93780.63;4977352;28;20038;-75
2023/01/16 06:34:27;;;;;;;2.25;1.15;;;;;;;-3.07;100.00;93772.69;4974056;28;20039;-75
2023/01/16 06:36:52;;;;;;;2.33;1.05;;;;;;;-3.04;100.00;93776.59;5005475;28;20427;-75
2023/01/16 06:39:18;;;;;;;1.75;1.20;;;;;;;-3.09;100.00;93764.41;5001128;28;20046;-74
2023/01/16 06:41:44;;;;;;;2.58;1.15;;;;;;;-3.05;100.00;93750.06;4998594;28;20779;-75
2023/01/16 06:44:09;;;;;;;2.88;1.38;;;;;;;-3.01;100.00;93745.25;4985488;28;20046;-75
2023/01/16 06:46:35;;;;;;;4.00;1.77;;;;;;;-2.99;100.00;93746.59;5001648;28;20105;-76
2023/01/16 06:49:01;;;;;;;1.85;1.23;;;;;;;-3.02;100.00;93734.16;5004539;28;20045;-75
2023/01/16 06:51:27;;;;;;;2.00;1.50;;;;;;;-2.97;100.00;93734.28;4992249;28;20500;-76
2023/01/16 06:53:52;;;;;;;3.42;1.35;;;;;;;-3.02;100.00;93718.72;4980752;28;20041;-76
2023/01/16 06:56:18;;;;;;;9.70;1.48;;;;;;;-3.19;100.00;93712.75;4993231;28;20062;-75
2023/01/16 06:58:44;;;;;;;2.60;1.38;;;;;;;-3.26;100.00;93709.50;4982422;28;20046;-75
2023/01/16 07:01:10;;;;;;;1.45;1.15;;;;;;;-3.19;100.00;93703.25;5001430;28;20601;-75
2023/01/16 07:03:35;;;;;;;1.85;1.45;;;;;;;-3.23;100.00;93685.91;4998516;28;20216;-75
2023/01/16 07:06:02;;;;;;;2.22;1.30;;;;;;;-3.27;100.00;93684.81;4972609;28;20117;-76
2023/01/16 07:08:27;;;;;;;1.63;1.10;;;;;;;-3.19;100.00;93684.44;4983932;28;20045;-76
2023/01/16 07:10:53;;;;;;;2.55;1.33;;;;;;;-3.23;100.00;93675.59;5000782;28;20117;-76
2023/01/16 07:13:26;;;;;;;2.08;1.48;;;;;;;-3.20;100.00;93675.16;4988476;28;20065;-75
2023/01/16 07:24:10;;;;;;;3.67;1.42;;;;;;;-3.05;100.00;93639.41;4994408;28;20496;-76
2023/01/16 07:26:39;;;;;;;1.83;1.10;;;;;;;-3.05;100.00;93636.84;4986296;28;20058;-76
2023/01/16 07:29:05;;;;;;;2.33;1.38;;;;;;;-3.00;100.00;93634.38;5003443;28;20038;-76
2023/01/16 07:31:33;;;;;;;2.92;1.40;;;;;;;-3.16;100.00;93629.94;4987903;28;20038;-76
2023/01/16 07:33:58;;;;;;;3.15;1.40;;;;;;;-3.15;100.00;93632.31;5000713;28;20487;-76
2023/01/16 07:36:24;;;;;;;4.45;1.08;;;;;;;-3.08;100.00;93615.94;5005881;28;20069;-77
2023/01/16 07:38:49;;;;;;;3.38;1.40;;;;;;;-3.02;100.00;93610.63;4976009;28;20064;-76
2023/01/16 07:41:15;;;;;;;2.42;1.40;;;;;;;-3.03;100.00;93603.94;4998147;28;20093;-76
2023/01/16 07:43:41;;;;;;;2.65;1.23;;;;;;;-3.01;100.00;93596.75;4985384;28;20053;-75
2023/01/16 07:46:07;;;;;;;3.35;1.30;;;;;;;-2.89;100.00;93583.06;5000382;28;20049;-75
2023/01/16 07:48:32;;;;;;;2.60;1.52;;;;;;;-2.74;100.00;93585.88;4982676;28;20037;-75
2023/01/16 07:50:59;;;;;;;3.28;1.60;;;;;;;-2.59;100.00;93577.59;4996826;28;20480;-72
2023/01/16 07:53:26;;;;;;;3.33;1.83;;;;;;;-2.56;100.00;93566.06;4992311;28;20049;-73
2023/01/16 07:55:54;;;;;;;2.75;1.63;;;;;;;-2.53;100.00;93563.81;5003865;28;20050;-74
2023/01/16 07:58:21;;;;;;;3.63;1.50;;;;;;;-2.48;100.00;93557.94;4972220;28;20453;-75
2023/01/16 08:00:47;;;;;;;4.35;1.63;;;;;;;-2.47;100.00;93549.19;4990332;28;20042;-75
2023/01/16 08:03:14;;;;;;;4.00;1.35;;;;;;;-2.39;100.00;93541.06;4989395;28;20117;-74
2023/01/16 08:05:43;;;;;;;3.60;1.80;;;;;;;-2.38;100.00;93532.31;4957973;28;20035;-75
2023/01/16 08:08:09;;;;;;;3.63;1.80;;;;;;;-2.34;100.00;93527.47;4991514;28;20061;-75
2023/01/16 08:10:34;;;;;;;2.83;1.90;;;;;;;-2.30;100.00;93519.03;4995087;28;20038;-75
2023/01/16 08:13:00;;;;;;;3.47;1.98;;;;;;;-2.18;100.00;93510.44;4988324;28;20555;-77
2023/01/16 08:15:26;;;;;;;3.63;1.88;;;;;;;-2.17;100.00;93506.81;4996217;28;20053;-74
2023/01/16 08:17:51;;;;;;;2.28;1.67;;;;;;;-1.98;100.00;93504.75;5009755;28;20042;-74
2023/01/16 08:20:17;;;;;;;3.35;1.77;;;;;;;-1.80;100.00;93506.22;4992171;28;20042;-75
2023/01/16 08:22:47;;;;;;;5.82;2.17;;;;;;;-1.79;100.00;93492.31;4989805;28;20045;-74
2023/01/16 08:25:14;;;;;;;4.25;2.10;;;;;;;-1.60;100.00;93496.09;4990869;28;20046;-76
2023/01/16 08:27:40;;;;;;;3.13;1.98;;;;;;;-1.58;100.00;93494.09;5004179;28;20172;-75
2023/01/16 08:30:07;;;;;;;3.25;1.88;;;;;;;-1.63;100.00;93490.66;5001905;28;20042;-76
2023/01/16 08:32:33;;;;;;;2.80;1.90;;;;;;;-1.39;100.00;93480.84;4975502;28;20501;-75
2023/01/16 08:34:58;;;;;;;4.50;2.03;;;;;;;-1.48;100.00;93466.81;4984545;28;20057;-74
2023/01/16 08:37:24;;;;;;;3.15;2.00;;;;;;;-1.27;100.00;93465.97;5001998;28;20042;-76
2023/01/16 08:39:50;;;;;;;3.75;2.20;;;;;;;-1.26;100.00;93459.78;4999270;28;20136;-76
2023/01/16 08:53:13;;;;;;;5.55;2.25;;;;;;;-0.77;100.00;93403.84;4991379;28;21039;-76
2023/01/16 08:55:39;;;;;;;5.45;2.63;;;;;;;-0.67;100.00;93403.13;5001426;28;20081;-76
2023/01/16 08:58:05;;;;;;;5.13;2.60;;;;;;;-0.74;100.00;93393.00;5000529;28;20376;-76
2023/01/16 09:00:34;;;;;;;6.65;2.60;;;;;;;-0.67;100.00;93392.81;4979257;28;20039;-76
2023/01/16 09:03:01;;;;;;;8.10;2.85;;;;;;;-0.45;100.00;93387.47;4992558;28;20046;-76
2023/01/16 09:05:27;;;;;;;5.82;2.80;;;;;;;-0.36;100.00;93378.19;4992928;28;20464;-76
2023/01/16 09:07:53;;;;;;;5.55;2.63;;;;;;;-0.35;100.00;93374.56;4993472;28;20053;-76
2023/01/16 09:10:19;;;;;;;6.50;2.65;;;;;;;-0.17;100.00;93373.34;4970992;28;20042;-76
2023/01/16 09:15:28;;;;;;;7.40;2.65;;;;;;;0.08;100.00;93351.94;4991517;28;20042;-76
2023/01/16 09:17:54;;;;;;;6.20;2.70;;;;;;;0.14;100.00;93344.97;4993407;28;20053;-76
2023/01/16 09:20:20;;;;;;;5.10;2.92;;;;;;;0.30;100.00;93345.75;4975523;28;20130;-76
2023/01/16 09:22:45;;;;;;;8.52;3.25;;;;;;;0.43;100.00;93347.84;4966052;28;20682;-76
2023/01/16 09:25:11;;;;;;;9.05;3.35;;;;;;;0.50;100.00;93338.00;4992042;28;20546;-76
2023/01/16 09:27:36;;;;;;;8.13;3.00;;;;;;;0.66;100.00;93330.22;4992708;28;20049;-76
2023/01/16 09:30:03;;;;;;;5.13;2.80;;;;;;;0.66;100.00;93335.38;4995866;28;20038;-76
2023/01/16 09:32:29;;;;;;;7.90;2.85;;;;;;;0.74;100.00;93321.94;4983923;28;20108;-76
2023/01/16 09:34:54;;;;;;;8.25;3.30;;;;;;;0.88;100.00;93316.19;4987479;28;20501;-76
2023/01/16 09:37:20;;;;;;;5.40;2.72;;;;;;;0.99;100.00;93312.56;4983334;28;20039;-76
2023/01/16 09:39:46;;;;;;;6.30;2.92;;;;;;;1.09;100.00;93312.53;4998302;28;20046;-75
2023/01/16 09:45:26;;;;;;;4.65;2.95;;;;;;;1.41;100.00;93293.25;4987721;28;20566;-75
2023/01/16 09:47:56;;;;;;;7.10;2.67;;;;;;;1.62;100.00;93287.97;4986502;28;20042;-75
2023/01/16 09:50:44;;;;;;;8.13;2.75;;;;;;;1.87;100.00;93274.84;4987210;28;20042;-76
2023/01/16 09:59:15;;;;;;;5.97;2.90;;;;;;;2.25;100.00;93249.13;4992156;28;20125;-76
2023/01/16 10:01:47;;;;;;;5.40;2.55;;;;;;;2.49;100.00;93227.66;4987193;28;20038;-77
2023/01/16 10:04:21;;;;;;;5.32;2.40;;;;;;;2.77;100.00;93217.50;4992632;28;20045;-77
2023/01/16 10:07:02;;;;;;;5.78;2.60;;;;;;;2.70;100.00;93211.88;4975452;28;20054;-77
2023/01/16 10:09:50;;;;;;;5.57;2.45;;;;;;;2.30;100.00;93198.22;4991079;28;20038;-77
2023/01/16 10:12:15;;;;;;;4.70;2.47;;;;;;;2.34;100.00;93197.44;4995029;28;20042;-77
2023/01/16 10:14:44;;;;;;;5.70;2.55;;;;;;;2.28;100.00;93184.78;4983327;28;20113;-77
2023/01/16 10:17:35;;;;;;;5.28;2.65;;;;;;;2.59;100.00;93169.66;4994190;28;20073;-77
2023/01/16 10:20:22;;;;;;;6.57;2.75;;;;;;;2.49;100.00;93160.16;4993975;28;20064;-76
2023/01/16 10:23:02;;;;;;;5.28;2.60;;;;;;;2.29;100.00;93150.00;4989391;28;20493;-76
2023/01/16 10:25:35;;;;;;;5.68;2.58;;;;;;;2.14;100.00;93136.13;4987978;28;20046;-76
2023/01/16 10:28:26;;;;;;;10.52;2.80;;;;;;;3.49;100.00;93133.44;4991055;28;20062;-76
2023/01/16 10:31:08;;;;;;;6.47;2.67;;;;;;;4.19;100.00;93118.78;4984839;28;20117;-76
2023/01/16 10:33:50;;;;;;;7.03;3.15;;;;;;;5.46;100.00;93120.97;4989565;28;20047;-71
2023/01/16 10:36:18;;;;;;;6.00;2.60;;;;;;;6.22;100.00;93107.97;4983920;28;20578;-72
2023/01/16 10:38:50;;;;;;;6.20;2.47;;;;;;;6.04;100.00;93107.09;4989788;28;20054;-71
2023/01/16 10:49:46;;;;;;;4.50;2.10;;;;;;;5.77;98.68;93078.53;4986546;28;20030;-75
2023/01/16 10:52:11;;;;;;;4.15;2.20;;;;;;;5.98;91.25;93069.16;4969019;28;20043;-75
2023/01/16 10:54:37;;;;;;;3.78;2.10;;;;;;;4.32;100.00;93068.56;4990882;28;20574;-75
2023/01/16 10:57:15;;;;;;;5.70;2.30;;;;;;;3.61;100.00;93071.34;4988227;28;20052;-75
2023/01/16 10:59:42;;;;;;;5.55;2.40;;;;;;;3.91;100.00;93058.91;4970573;28;20057;-74
2023/01/16 11:02:19;;;;;;;4.20;2.13;;;;;;;5.47;99.61;93052.09;4973583;28;20043;-75
2023/01/16 11:04:45;;;;;;;6.05;2.22;;;;;;;5.44;99.35;93039.63;4984675;28;20507;-74
2023/01/16 11:07:20;;;;;;;4.05;2.15;;;;;;;4.87;100.00;93033.09;4987293;28;20046;-74
2023/01/16 11:09:46;;;;;;;4.28;1.92;;;;;;;5.73;92.04;93021.72;4977115;28;20039;-74
2023/01/16 11:20:45;;;;;;;4.18;2.25;;;;;;;7.74;79.55;93005.53;4988262;28;20046;-74
2023/01/16 11:23:15;;;;;;;6.78;2.33;;;;;;;8.23;85.70;92996.56;4985764;28;20046;-74
2023/01/16 11:25:43;;;;;;;5.80;2.13;;;;;;;9.01;71.77;92992.72;4973029;28;20050;-75
2023/01/16 11:28:16;;;;;;;5.15;2.38;;;;;;;7.60;75.38;92981.38;4988329;28;20555;-74
2023/01/16 11:30:45;;;;;;;4.80;2.45;;;;;;;7.90;75.17;92978.81;4975745;28;20039;-74
2023/01/16 11:33:18;;;;;;;3.78;2.17;;;;;;;8.74;72.65;92967.78;4985720;28;20046;-74
2023/01/16 11:35:53;;;;;;;4.53;2.13;;;;;;;8.75;71.22;92964.84;4990121;28;20097;-74
2023/01/16 11:38:21;;;;;;;5.15;2.10;;;;;;;8.58;70.22;92950.00;4966980;28;20080;-73
2023/01/16 11:40:50;;;;;;;4.82;2.15;;;;;;;8.02;69.22;92950.13;4984387;28;20043;-75
2023/01/16 11:46:36;;;;;;;5.25;2.22;;;;;;;8.18;69.08;92926.03;4999108;28;20038;-76
2023/01/16 11:49:05;;;;;;;3.72;1.90;;;;;;;7.76;71.25;92927.44;4992540;28;20034;-74
2023/01/16 11:51:32;;;;;;;5.28;2.20;;;;;;;8.46;71.67;92916.63;5001990;28;20050;-76
2023/01/16 11:54:00;;;;;;;3.80;1.75;;;;;;;8.44;71.43;92905.66;4989728;28;20049;-74
2023/01/16 11:56:50;;;;;;;5.43;2.00;;;;;;;8.09;68.58;92892.78;4989961;28;20042;-74
2023/01/16 11:59:24;;;;;;;4.28;1.90;;;;;;;8.41;66.50;92882.69;4996300;28;20038;-73
2023/01/16 12:04:36;;;;;;;4.03;1.90;;;;;;;6.45;75.58;92898.13;4996415;28;20038;-76
2023/01/16 12:07:19;;;;;;;3.90;2.05;;;;;;;7.34;73.79;92880.19;4998913;28;20048;-75
2023/01/16 12:10:00;;;;;;;3.83;1.80;;;;;;;7.34;71.72;92874.16;4996478;28;20556;-73
2023/01/16 12:15:35;;;;;;;2.92;1.70;;;;;;;7.55;77.75;92863.78;4986936;28;20050;-76
2023/01/16 12:18:26;;;;;;;3.92;1.70;;;;;;;7.49;73.01;92860.56;4965833;28;20043;-74
2023/01/16 12:21:02;;;;;;;3.47;1.90;;;;;;;6.87;78.56;92862.59;4974424;28;20488;-73
2023/01/16 12:23:45;;;;;;;3.97;1.70;;;;;;;7.41;74.16;92853.50;4999045;28;20037;-75
2023/01/16 12:26:25;;;;;;;3.88;2.08;;;;;;;7.97;76.55;92858.63;5000832;28;20074;-74
2023/01/16 12:29:00;;;;;;;3.63;1.90;;;;;;;7.63;73.59;92849.91;5003538;28;20046;-74
2023/01/16 12:31:51;;;;;;;4.30;2.03;;;;;;;7.12;78.03;92855.00;5002556;28;20503;-75
2023/01/16 12:34:45;;;;;;;2.95;1.60;;;;;;;6.49;81.57;92842.34;5009107;28;20042;-74
2023/01/16 12:37:17;;;;;;;3.83;2.00;;;;;;;6.71;88.38;92838.00;4976779;28;20504;-75
2023/01/16 12:39:54;;;;;;;4.80;1.80;;;;;;;6.57;90.11;92840.81;4989762;28;20046;-73
2023/01/16 12:45:41;;;;;;;2.47;1.70;;;;;;;5.58;93.97;92842.06;4983808;28;20042;-75
2023/01/16 12:48:32;;;;;;;2.85;1.60;;;;;;;5.60;94.78;92839.91;5013149;28;20049;-75
2023/01/16 12:51:07;;;;;;;2.60;1.83;;;;;;;5.62;100.00;92831.81;4995461;28;20578;-76